sensor_id;sensor_type;location;lat;lon;timestamp;temperature;humidity
6407;DHT22;3236;51.022;6.818;2023-01-24T00:01:12;3.10;99.90
6407;DHT22;3236;51.022;6.818;2023-01-24T00:03:40;2.80;99.90
6407;DHT22;3236;51.022;6.818;2023-01-24T00:08:36;3.10;99.90
6407;DHT22;3236;51.022;6.818;2023-01-24T00:11:06;3.50;99.90
6407;DHT22;3236;51.022;6.818;2023-01-24T00:13:34;3.20;99.90
6407;DHT22;3236;51.022;6.818;2023-01-24T00:16:03;3.40;99.90
6407;DHT22;3236;51.022;6.818;2023-01-24T00:18:30;3.20;99.90
6407;DHT22;3236;51.022;6.818;2023-01-24T00:21:05;3.40;99.90
6407;DHT22;3236;51.022;6.818;2023-01-24T00:23:35;3.20;99.90
6407;DHT22;3236;51.022;6.818;2023-01-24T00:26:02;3.50;99.90
6407;DHT22;3236;51.022;6.818;2023-01-24T00:28:29;3.50;99.90
6407;DHT22;3236;51.022;6.818;2023-01-24T00:30:58;3.30;99.90
6407;DHT22;3236;51.022;6.818;2023-01-24T00:33:25;3.30;99.90
6407;DHT22;3236;51.022;6.818;2023-01-24T00:35:55;3.50;99.90
6407;DHT22;3236;51.022;6.818;2023-01-24T00:38:24;3.40;99.90
6407;DHT22;3236;51.022;6.818;2023-01-24T00:40:51;3.10;99.90
6407;DHT22;3236;51.022;6.818;2023-01-24T00:43:18;3.20;99.90
6407;DHT22;3236;51.022;6.818;2023-01-24T00:45:45;3.60;99.90
6407;DHT22;3236;51.022;6.818;2023-01-24T00:48:13;3.30;99.90
6407;DHT22;3236;51.022;6.818;2023-01-24T00:50:41;3.00;99.90
6407;DHT22;3236;51.022;6.818;2023-01-24T00:53:08;3.30;99.90
6407;DHT22;3236;51.022;6.818;2023-01-24T00:55:42;3.20;99.90
6407;DHT22;3236;51.022;6.818;2023-01-24T00:58:09;3.20;99.90
6407;DHT22;3236;51.022;6.818;2023-01-24T01:03:04;3.20;99.90
6407;DHT22;3236;51.022;6.818;2023-01-24T01:05:32;3.20;99.90
6407;DHT22;3236;51.022;6.818;2023-01-24T01:07:59;3.10;99.90
6407;DHT22;3236;51.022;6.818;2023-01-24T01:10:25;3.50;99.90
6407;DHT22;3236;51.022;6.818;2023-01-24T01:12:56;3.20;99.90
6407;DHT22;3236;51.022;6.818;2023-01-24T01:15:23;3.30;99.90
6407;DHT22;3236;51.022;6.818;2023-01-24T01:17:50;3.30;99.90
6407;DHT22;3236;51.022;6.818;2023-01-24T01:20:17;3.40;99.90
6407;DHT22;3236;51.022;6.818;2023-01-24T01:22:44;3.50;99.90
6407;DHT22;3236;51.022;6.818;2023-01-24T01:25:12;3.00;99.90
6407;DHT22;3236;51.022;6.818;2023-01-24T01:27:39;3.20;99.90
6407;DHT22;3236;51.022;6.818;2023-01-24T01:30:09;3.30;99.90
6407;DHT22;3236;51.022;6.818;2023-01-24T01:32:36;3.20;99.90
6407;DHT22;3236;51.022;6.818;2023-01-24T01:35:05;3.10;99.90
6407;DHT22;3236;51.022;6.818;2023-01-24T01:37:35;3.20;99.90
6407;DHT22;3236;51.022;6.818;2023-01-24T01:40:02;3.50;99.90
6407;DHT22;3236;51.022;6.818;2023-01-24T01:42:39;3.30;99.90
6407;DHT22;3236;51.022;6.818;2023-01-24T01:45:31;3.20;99.90
6407;DHT22;3236;51.022;6.818;2023-01-24T01:48:00;3.10;99.90
6407;DHT22;3236;51.022;6.818;2023-01-24T01:50:31;3.50;99.90
6407;DHT22;3236;51.022;6.818;2023-01-24T01:53:00;3.60;99.90
6407;DHT22;3236;51.022;6.818;2023-01-24T01:55:33;3.00;99.90
6407;DHT22;3236;51.022;6.818;2023-01-24T01:58:07;2.90;99.90
6407;DHT22;3236;51.022;6.818;2023-01-24T02:00:35;3.00;99.90
6407;DHT22;3236;51.022;6.818;2023-01-24T02:03:14;3.20;99.90
6407;DHT22;3236;51.022;6.818;2023-01-24T02:05:59;3.40;99.90
6407;DHT22;3236;51.022;6.818;2023-01-24T02:08:27;3.30;99.90
6407;DHT22;3236;51.022;6.818;2023-01-24T02:10:55;3.30;99.90
6407;DHT22;3236;51.022;6.818;2023-01-24T02:13:41;3.10;99.90
6407;DHT22;3236;51.022;6.818;2023-01-24T02:16:11;3.20;99.90
6407;DHT22;3236;51.022;6.818;2023-01-24T02:18:40;3.10;99.90
6407;DHT22;3236;51.022;6.818;2023-01-24T02:21:12;3.30;99.90
6407;DHT22;3236;51.022;6.818;2023-01-24T02:23:46;3.10;99.90
6407;DHT22;3236;51.022;6.818;2023-01-24T02:28:55;3.10;99.90
6407;DHT22;3236;51.022;6.818;2023-01-24T02:31:23;2.90;99.90
6407;DHT22;3236;51.022;6.818;2023-01-24T02:33:52;2.80;99.90
6407;DHT22;3236;51.022;6.818;2023-01-24T02:36:21;3.00;99.90
6407;DHT22;3236;51.022;6.818;2023-01-24T02:38:54;3.40;99.90
6407;DHT22;3236;51.022;6.818;2023-01-24T02:41:29;2.90;99.90
6407;DHT22;3236;51.022;6.818;2023-01-24T02:44:03;3.00;99.90
6407;DHT22;3236;51.022;6.818;2023-01-24T02:48:58;2.80;99.90
6407;DHT22;3236;51.022;6.818;2023-01-24T02:51:25;2.90;99.90
6407;DHT22;3236;51.022;6.818;2023-01-24T02:54:09;3.30;99.90
6407;DHT22;3236;51.022;6.818;2023-01-24T02:56:38;3.30;99.90
6407;DHT22;3236;51.022;6.818;2023-01-24T02:59:23;3.20;99.90
6407;DHT22;3236;51.022;6.818;2023-01-24T03:01:50;3.10;99.90
6407;DHT22;3236;51.022;6.818;2023-01-24T03:04:18;3.00;99.90
6407;DHT22;3236;51.022;6.818;2023-01-24T03:06:46;3.10;99.90
6407;DHT22;3236;51.022;6.818;2023-01-24T03:09:15;2.70;99.90
6407;DHT22;3236;51.022;6.818;2023-01-24T03:11:47;3.30;99.90
6407;DHT22;3236;51.022;6.818;2023-01-24T03:14:14;3.30;99.90
6407;DHT22;3236;51.022;6.818;2023-01-24T03:19:47;2.80;99.90
6407;DHT22;3236;51.022;6.818;2023-01-24T03:22:34;3.10;99.90
6407;DHT22;3236;51.022;6.818;2023-01-24T03:25:19;3.20;99.90
6407;DHT22;3236;51.022;6.818;2023-01-24T03:28:05;3.60;99.90
6407;DHT22;3236;51.022;6.818;2023-01-24T03:30:50;2.90;99.90
6407;DHT22;3236;51.022;6.818;2023-01-24T03:33:38;3.10;99.90
6407;DHT22;3236;51.022;6.818;2023-01-24T03:36:22;3.40;99.90
6407;DHT22;3236;51.022;6.818;2023-01-24T03:38:57;2.80;99.90
6407;DHT22;3236;51.022;6.818;2023-01-24T03:41:43;3.00;99.90
6407;DHT22;3236;51.022;6.818;2023-01-24T03:44:12;2.70;99.90
6407;DHT22;3236;51.022;6.818;2023-01-24T03:46:39;3.00;99.90
6407;DHT22;3236;51.022;6.818;2023-01-24T03:49:06;3.10;99.90
6407;DHT22;3236;51.022;6.818;2023-01-24T03:51:34;3.10;99.90
6407;DHT22;3236;51.022;6.818;2023-01-24T03:54:18;2.90;99.90
6407;DHT22;3236;51.022;6.818;2023-01-24T04:00:25;2.70;99.90
6407;DHT22;3236;51.022;6.818;2023-01-24T04:02:55;2.50;99.90
6407;DHT22;3236;51.022;6.818;2023-01-24T04:05:25;2.60;99.90
6407;DHT22;3236;51.022;6.818;2023-01-24T04:07:53;2.80;99.90
6407;DHT22;3236;51.022;6.818;2023-01-24T04:10:23;2.40;99.90
6407;DHT22;3236;51.022;6.818;2023-01-24T04:12:50;2.60;99.90
6407;DHT22;3236;51.022;6.818;2023-01-24T04:15:18;2.40;99.90
6407;DHT22;3236;51.022;6.818;2023-01-24T04:17:47;2.70;99.90
6407;DHT22;3236;51.022;6.818;2023-01-24T04:20:15;2.80;99.90
6407;DHT22;3236;51.022;6.818;2023-01-24T04:22:43;2.70;99.90
6407;DHT22;3236;51.022;6.818;2023-01-24T04:25:16;2.90;99.90
6407;DHT22;3236;51.022;6.818;2023-01-24T04:27:44;2.70;99.90
6407;DHT22;3236;51.022;6.818;2023-01-24T04:30:13;2.50;99.90
6407;DHT22;3236;51.022;6.818;2023-01-24T04:32:40;2.60;99.90
6407;DHT22;3236;51.022;6.818;2023-01-24T04:35:14;2.60;99.90
6407;DHT22;3236;51.022;6.818;2023-01-24T04:37:42;2.60;99.90
6407;DHT22;3236;51.022;6.818;2023-01-24T04:40:10;3.00;99.90
6407;DHT22;3236;51.022;6.818;2023-01-24T04:42:37;2.70;99.90
6407;DHT22;3236;51.022;6.818;2023-01-24T04:45:09;2.80;99.90
6407;DHT22;3236;51.022;6.818;2023-01-24T04:47:36;2.70;99.90
6407;DHT22;3236;51.022;6.818;2023-01-24T04:50:04;2.80;99.90
6407;DHT22;3236;51.022;6.818;2023-01-24T04:52:33;2.40;99.90
6407;DHT22;3236;51.022;6.818;2023-01-24T04:55:04;2.80;99.90
6407;DHT22;3236;51.022;6.818;2023-01-24T04:57:34;2.80;99.90
6407;DHT22;3236;51.022;6.818;2023-01-24T05:00:01;2.70;99.90
6407;DHT22;3236;51.022;6.818;2023-01-24T05:02:30;2.70;99.90
6407;DHT22;3236;51.022;6.818;2023-01-24T05:04:58;2.80;99.90
6407;DHT22;3236;51.022;6.818;2023-01-24T05:09:53;2.80;99.90
6407;DHT22;3236;51.022;6.818;2023-01-24T05:12:23;2.90;99.90
6407;DHT22;3236;51.022;6.818;2023-01-24T05:14:50;2.80;99.90
6407;DHT22;3236;51.022;6.818;2023-01-24T05:17:17;2.80;99.90
6407;DHT22;3236;51.022;6.818;2023-01-24T05:19:44;2.40;99.90
6407;DHT22;3236;51.022;6.818;2023-01-24T05:22:14;2.50;99.90
6407;DHT22;3236;51.022;6.818;2023-01-24T05:24:41;2.60;99.90
6407;DHT22;3236;51.022;6.818;2023-01-24T05:27:09;2.50;99.90
6407;DHT22;3236;51.022;6.818;2023-01-24T05:29:36;2.80;99.90
6407;DHT22;3236;51.022;6.818;2023-01-24T05:32:11;2.30;99.90
6407;DHT22;3236;51.022;6.818;2023-01-24T05:34:43;2.60;99.90
6407;DHT22;3236;51.022;6.818;2023-01-24T05:37:11;2.20;99.90
6407;DHT22;3236;51.022;6.818;2023-01-24T05:39:38;2.40;99.90
6407;DHT22;3236;51.022;6.818;2023-01-24T05:42:05;2.20;99.90
6407;DHT22;3236;51.022;6.818;2023-01-24T05:44:33;2.30;99.90
6407;DHT22;3236;51.022;6.818;2023-01-24T05:49:27;2.50;99.90
6407;DHT22;3236;51.022;6.818;2023-01-24T05:51:54;2.40;99.90
6407;DHT22;3236;51.022;6.818;2023-01-24T05:54:21;2.60;99.90
6407;DHT22;3236;51.022;6.818;2023-01-24T05:56:48;2.60;99.90
6407;DHT22;3236;51.022;6.818;2023-01-24T05:59:16;2.30;99.90
6407;DHT22;3236;51.022;6.818;2023-01-24T06:01:44;2.40;99.90
6407;DHT22;3236;51.022;6.818;2023-01-24T06:06:42;2.60;99.90
6407;DHT22;3236;51.022;6.818;2023-01-24T06:09:09;2.70;99.90
6407;DHT22;3236;51.022;6.818;2023-01-24T06:11:36;2.40;99.90
6407;DHT22;3236;51.022;6.818;2023-01-24T06:14:03;2.40;99.90
6407;DHT22;3236;51.022;6.818;2023-01-24T06:16:30;2.10;99.90
6407;DHT22;3236;51.022;6.818;2023-01-24T06:18:59;2.70;99.90
6407;DHT22;3236;51.022;6.818;2023-01-24T06:21:39;2.60;99.90
6407;DHT22;3236;51.022;6.818;2023-01-24T06:24:17;2.50;99.90
6407;DHT22;3236;51.022;6.818;2023-01-24T06:26:46;2.60;99.90
6407;DHT22;3236;51.022;6.818;2023-01-24T06:29:15;2.70;99.90
6407;DHT22;3236;51.022;6.818;2023-01-24T06:31:48;2.30;99.90
6407;DHT22;3236;51.022;6.818;2023-01-24T06:34:37;2.50;99.90
6407;DHT22;3236;51.022;6.818;2023-01-24T06:37:13;2.50;99.90
6407;DHT22;3236;51.022;6.818;2023-01-24T06:39:48;2.50;99.90
6407;DHT22;3236;51.022;6.818;2023-01-24T06:42:17;2.50;99.90
6407;DHT22;3236;51.022;6.818;2023-01-24T06:44:45;2.60;99.90
6407;DHT22;3236;51.022;6.818;2023-01-24T06:47:13;2.80;99.90
6407;DHT22;3236;51.022;6.818;2023-01-24T06:49:42;2.70;99.90
6407;DHT22;3236;51.022;6.818;2023-01-24T06:52:11;2.50;99.90
6407;DHT22;3236;51.022;6.818;2023-01-24T06:57:07;2.20;99.90
6407;DHT22;3236;51.022;6.818;2023-01-24T06:59:34;2.60;99.90
6407;DHT22;3236;51.022;6.818;2023-01-24T07:02:03;2.50;99.90
6407;DHT22;3236;51.022;6.818;2023-01-24T07:04:33;2.40;99.90
6407;DHT22;3236;51.022;6.818;2023-01-24T07:07:05;2.20;99.90
6407;DHT22;3236;51.022;6.818;2023-01-24T07:09:32;2.80;99.90
6407;DHT22;3236;51.022;6.818;2023-01-24T07:11:59;2.40;99.90
6407;DHT22;3236;51.022;6.818;2023-01-24T07:14:26;2.70;99.90
6407;DHT22;3236;51.022;6.818;2023-01-24T07:16:54;2.80;99.90
6407;DHT22;3236;51.022;6.818;2023-01-24T07:19:22;2.50;99.90
6407;DHT22;3236;51.022;6.818;2023-01-24T07:21:51;2.70;99.90
6407;DHT22;3236;51.022;6.818;2023-01-24T07:24:23;2.10;99.90
6407;DHT22;3236;51.022;6.818;2023-01-24T07:26:51;2.50;99.90
6407;DHT22;3236;51.022;6.818;2023-01-24T07:29:19;2.50;99.90
6407;DHT22;3236;51.022;6.818;2023-01-24T07:31:46;2.10;99.90
6407;DHT22;3236;51.022;6.818;2023-01-24T07:34:14;2.20;99.90
6407;DHT22;3236;51.022;6.818;2023-01-24T07:36:41;2.80;99.90
6407;DHT22;3236;51.022;6.818;2023-01-24T07:39:09;2.10;99.90
6407;DHT22;3236;51.022;6.818;2023-01-24T07:41:37;2.60;99.90
6407;DHT22;3236;51.022;6.818;2023-01-24T07:44:06;2.20;99.90
6407;DHT22;3236;51.022;6.818;2023-01-24T07:46:33;2.30;99.90
6407;DHT22;3236;51.022;6.818;2023-01-24T07:49:01;2.70;99.90
6407;DHT22;3236;51.022;6.818;2023-01-24T07:51:28;2.50;99.90
6407;DHT22;3236;51.022;6.818;2023-01-24T07:53:56;2.60;99.90
6407;DHT22;3236;51.022;6.818;2023-01-24T07:58:55;2.50;99.90
6407;DHT22;3236;51.022;6.818;2023-01-24T08:01:26;2.70;99.90
6407;DHT22;3236;51.022;6.818;2023-01-24T08:03:54;2.50;99.90
6407;DHT22;3236;51.022;6.818;2023-01-24T08:06:22;2.30;99.90
6407;DHT22;3236;51.022;6.818;2023-01-24T08:11:16;2.50;99.90
6407;DHT22;3236;51.022;6.818;2023-01-24T08:13:43;2.30;99.90
6407;DHT22;3236;51.022;6.818;2023-01-24T08:16:12;2.70;99.90
6407;DHT22;3236;51.022;6.818;2023-01-24T08:18:40;3.00;99.90
6407;DHT22;3236;51.022;6.818;2023-01-24T08:21:07;2.50;99.90
6407;DHT22;3236;51.022;6.818;2023-01-24T08:23:35;2.30;99.90
6407;DHT22;3236;51.022;6.818;2023-01-24T08:26:03;2.90;99.90
6407;DHT22;3236;51.022;6.818;2023-01-24T08:30:58;2.70;99.90
6407;DHT22;3236;51.022;6.818;2023-01-24T08:33:30;2.40;99.90
6407;DHT22;3236;51.022;6.818;2023-01-24T08:38:30;2.80;99.90
6407;DHT22;3236;51.022;6.818;2023-01-24T08:40:57;2.90;99.90
6407;DHT22;3236;51.022;6.818;2023-01-24T08:43:24;2.90;99.90
6407;DHT22;3236;51.022;6.818;2023-01-24T08:45:54;3.00;99.90
6407;DHT22;3236;51.022;6.818;2023-01-24T08:48:21;3.00;99.90
6407;DHT22;3236;51.022;6.818;2023-01-24T08:50:50;2.80;99.90
6407;DHT22;3236;51.022;6.818;2023-01-24T08:53:20;3.30;99.90
6407;DHT22;3236;51.022;6.818;2023-01-24T08:55:48;3.30;99.90
6407;DHT22;3236;51.022;6.818;2023-01-24T08:58:18;2.70;99.90
6407;DHT22;3236;51.022;6.818;2023-01-24T09:00:49;3.20;99.90
6407;DHT22;3236;51.022;6.818;2023-01-24T09:03:19;2.90;99.90
6407;DHT22;3236;51.022;6.818;2023-01-24T09:05:46;3.10;99.90
6407;DHT22;3236;51.022;6.818;2023-01-24T09:08:15;3.00;99.90
6407;DHT22;3236;51.022;6.818;2023-01-24T09:10:43;2.80;99.90
6407;DHT22;3236;51.022;6.818;2023-01-24T09:13:13;3.40;99.90
6407;DHT22;3236;51.022;6.818;2023-01-24T09:15:40;3.40;99.90
6407;DHT22;3236;51.022;6.818;2023-01-24T09:18:07;2.90;99.90
6407;DHT22;3236;51.022;6.818;2023-01-24T09:23:08;3.30;99.90
6407;DHT22;3236;51.022;6.818;2023-01-24T09:25:36;3.30;99.90
6407;DHT22;3236;51.022;6.818;2023-01-24T09:28:07;3.00;99.90
6407;DHT22;3236;51.022;6.818;2023-01-24T09:30:34;3.40;99.90
6407;DHT22;3236;51.022;6.818;2023-01-24T09:33:03;3.30;99.90
6407;DHT22;3236;51.022;6.818;2023-01-24T09:35:30;3.30;99.90
6407;DHT22;3236;51.022;6.818;2023-01-24T09:37:57;3.00;99.90
6407;DHT22;3236;51.022;6.818;2023-01-24T09:40:29;2.90;99.90
6407;DHT22;3236;51.022;6.818;2023-01-24T09:43:03;3.20;99.90
6407;DHT22;3236;51.022;6.818;2023-01-24T09:45:34;3.20;99.90
6407;DHT22;3236;51.022;6.818;2023-01-24T09:48:04;3.40;99.90
6407;DHT22;3236;51.022;6.818;2023-01-24T09:50:40;3.30;99.90
6407;DHT22;3236;51.022;6.818;2023-01-24T09:53:14;3.00;99.90
6407;DHT22;3236;51.022;6.818;2023-01-24T09:55:43;3.50;99.90
6407;DHT22;3236;51.022;6.818;2023-01-24T09:58:23;3.50;99.90
6407;DHT22;3236;51.022;6.818;2023-01-24T10:00:54;3.20;99.90
6407;DHT22;3236;51.022;6.818;2023-01-24T10:03:23;3.40;99.90
6407;DHT22;3236;51.022;6.818;2023-01-24T10:05:52;3.70;99.90
6407;DHT22;3236;51.022;6.818;2023-01-24T10:08:28;3.20;99.90
6407;DHT22;3236;51.022;6.818;2023-01-24T10:11:12;3.70;99.90
6407;DHT22;3236;51.022;6.818;2023-01-24T10:14:06;3.30;99.90
6407;DHT22;3236;51.022;6.818;2023-01-24T10:19:51;3.40;99.90
6407;DHT22;3236;51.022;6.818;2023-01-24T10:22:37;3.50;99.90
6407;DHT22;3236;51.022;6.818;2023-01-24T10:25:14;3.70;99.90
6407;DHT22;3236;51.022;6.818;2023-01-24T10:27:46;3.30;99.90
6407;DHT22;3236;51.022;6.818;2023-01-24T10:30:18;3.40;99.90
6407;DHT22;3236;51.022;6.818;2023-01-24T10:32:49;3.40;99.90
6407;DHT22;3236;51.022;6.818;2023-01-24T10:35:20;3.80;99.90
6407;DHT22;3236;51.022;6.818;2023-01-24T10:37:53;3.60;99.90
6407;DHT22;3236;51.022;6.818;2023-01-24T10:40:22;3.60;99.90
6407;DHT22;3236;51.022;6.818;2023-01-24T10:42:51;3.80;99.90
6407;DHT22;3236;51.022;6.818;2023-01-24T10:45:45;3.30;99.90
6407;DHT22;3236;51.022;6.818;2023-01-24T10:48:27;3.30;99.90
6407;DHT22;3236;51.022;6.818;2023-01-24T10:51:15;3.60;99.90
6407;DHT22;3236;51.022;6.818;2023-01-24T10:53:43;3.80;99.90
6407;DHT22;3236;51.022;6.818;2023-01-24T10:56:10;3.50;99.90
6407;DHT22;3236;51.022;6.818;2023-01-24T10:58:41;3.50;99.90
6407;DHT22;3236;51.022;6.818;2023-01-24T11:01:18;5.00;99.90
6407;DHT22;3236;51.022;6.818;2023-01-24T11:03:47;4.20;99.90
6407;DHT22;3236;51.022;6.818;2023-01-24T11:06:28;4.40;99.90
6407;DHT22;3236;51.022;6.818;2023-01-24T11:09:02;3.50;99.90
6407;DHT22;3236;51.022;6.818;2023-01-24T11:11:31;3.90;99.90
6407;DHT22;3236;51.022;6.818;2023-01-24T11:14:00;3.70;99.90
6407;DHT22;3236;51.022;6.818;2023-01-24T11:16:34;3.50;99.90
6407;DHT22;3236;51.022;6.818;2023-01-24T11:19:21;3.80;99.90
6407;DHT22;3236;51.022;6.818;2023-01-24T11:21:51;3.80;99.90
6407;DHT22;3236;51.022;6.818;2023-01-24T11:24:19;3.40;99.90
6407;DHT22;3236;51.022;6.818;2023-01-24T11:27:01;3.90;99.90
6407;DHT22;3236;51.022;6.818;2023-01-24T11:29:29;3.70;99.90
6407;DHT22;3236;51.022;6.818;2023-01-24T11:32:12;4.00;99.90
6407;DHT22;3236;51.022;6.818;2023-01-24T11:34:53;3.70;99.90
6407;DHT22;3236;51.022;6.818;2023-01-24T11:40:33;3.70;99.90
6407;DHT22;3236;51.022;6.818;2023-01-24T11:43:20;3.70;99.90
6407;DHT22;3236;51.022;6.818;2023-01-24T11:46:10;3.70;99.90
6407;DHT22;3236;51.022;6.818;2023-01-24T11:48:47;3.90;99.90
6407;DHT22;3236;51.022;6.818;2023-01-24T11:51:25;3.60;99.90
6407;DHT22;3236;51.022;6.818;2023-01-24T11:54:07;3.90;99.90
6407;DHT22;3236;51.022;6.818;2023-01-24T11:56:42;4.00;99.90
6407;DHT22;3236;51.022;6.818;2023-01-24T12:02:29;3.80;99.90
6407;DHT22;3236;51.022;6.818;2023-01-24T12:05:18;3.80;99.90
6407;DHT22;3236;51.022;6.818;2023-01-24T12:07:56;3.80;99.90
6407;DHT22;3236;51.022;6.818;2023-01-24T12:10:42;4.10;99.90
6407;DHT22;3236;51.022;6.818;2023-01-24T12:13:18;4.10;99.90
6407;DHT22;3236;51.022;6.818;2023-01-24T12:15:55;4.10;99.90
6407;DHT22;3236;51.022;6.818;2023-01-24T12:18:42;3.70;99.90
6407;DHT22;3236;51.022;6.818;2023-01-24T12:21:14;4.20;99.90
6407;DHT22;3236;51.022;6.818;2023-01-24T12:23:46;4.10;99.90
6407;DHT22;3236;51.022;6.818;2023-01-24T12:26:17;3.80;99.90
6407;DHT22;3236;51.022;6.818;2023-01-24T12:28:51;4.00;99.90
6407;DHT22;3236;51.022;6.818;2023-01-24T12:31:27;3.90;99.90
6407;DHT22;3236;51.022;6.818;2023-01-24T12:33:59;3.80;99.90
6407;DHT22;3236;51.022;6.818;2023-01-24T12:36:38;3.90;99.90
6407;DHT22;3236;51.022;6.818;2023-01-24T12:39:12;3.70;99.90
6407;DHT22;3236;51.022;6.818;2023-01-24T12:41:44;3.80;99.90
6407;DHT22;3236;51.022;6.818;2023-01-24T12:47:10;4.00;99.90
6407;DHT22;3236;51.022;6.818;2023-01-24T12:49:46;4.00;99.90
6407;DHT22;3236;51.022;6.818;2023-01-24T12:52:27;4.30;99.90
6407;DHT22;3236;51.022;6.818;2023-01-24T12:55:02;4.10;99.90
6407;DHT22;3236;51.022;6.818;2023-01-24T12:57:37;4.30;99.90
6407;DHT22;3236;51.022;6.818;2023-01-24T13:00:14;4.50;99.90
6407;DHT22;3236;51.022;6.818;2023-01-24T13:05:47;4.20;99.90
6407;DHT22;3236;51.022;6.818;2023-01-24T13:08:28;4.40;99.90
6407;DHT22;3236;51.022;6.818;2023-01-24T13:11:14;4.30;99.90
6407;DHT22;3236;51.022;6.818;2023-01-24T13:14:10;4.40;99.90
6407;DHT22;3236;51.022;6.818;2023-01-24T13:17:01;4.10;99.90
6407;DHT22;3236;51.022;6.818;2023-01-24T13:19:58;4.30;99.90
6407;DHT22;3236;51.022;6.818;2023-01-24T13:22:47;4.00;99.90
6407;DHT22;3236;51.022;6.818;2023-01-24T13:28:22;4.50;99.90
6407;DHT22;3236;51.022;6.818;2023-01-24T13:31:07;4.50;99.90
6407;DHT22;3236;51.022;6.818;2023-01-24T13:33:42;4.50;99.90
6407;DHT22;3236;51.022;6.818;2023-01-24T13:36:17;4.10;99.90
6407;DHT22;3236;51.022;6.818;2023-01-24T13:38:45;4.30;99.90
6407;DHT22;3236;51.022;6.818;2023-01-24T13:41:16;4.10;99.90
6407;DHT22;3236;51.022;6.818;2023-01-24T13:43:57;4.00;99.90
6407;DHT22;3236;51.022;6.818;2023-01-24T13:46:59;4.00;99.90
6407;DHT22;3236;51.022;6.818;2023-01-24T13:49:44;4.20;99.90
6407;DHT22;3236;51.022;6.818;2023-01-24T13:52:37;4.00;99.90
6407;DHT22;3236;51.022;6.818;2023-01-24T13:58:29;4.20;99.90
6407;DHT22;3236;51.022;6.818;2023-01-24T14:00:59;3.90;99.90
6407;DHT22;3236;51.022;6.818;2023-01-24T14:03:30;4.10;99.90
6407;DHT22;3236;51.022;6.818;2023-01-24T14:06:12;4.20;99.90
6407;DHT22;3236;51.022;6.818;2023-01-24T14:08:49;4.10;99.90
6407;DHT22;3236;51.022;6.818;2023-01-24T14:11:34;3.80;99.90
6407;DHT22;3236;51.022;6.818;2023-01-24T14:14:26;3.90;99.90
6407;DHT22;3236;51.022;6.818;2023-01-24T14:17:03;3.80;99.90
6407;DHT22;3236;51.022;6.818;2023-01-24T14:19:36;4.10;99.90
6407;DHT22;3236;51.022;6.818;2023-01-24T14:22:17;3.80;99.90
6407;DHT22;3236;51.022;6.818;2023-01-24T14:24:57;3.90;99.90
6407;DHT22;3236;51.022;6.818;2023-01-24T14:27:34;4.10;99.90
6407;DHT22;3236;51.022;6.818;2023-01-24T14:30:23;4.20;99.90
6407;DHT22;3236;51.022;6.818;2023-01-24T14:32:57;3.70;99.90
6407;DHT22;3236;51.022;6.818;2023-01-24T14:35:28;4.00;99.90
6407;DHT22;3236;51.022;6.818;2023-01-24T14:38:11;3.90;99.90
6407;DHT22;3236;51.022;6.818;2023-01-24T14:40:40;3.50;99.90
6407;DHT22;3236;51.022;6.818;2023-01-24T14:43:10;3.80;99.90
6407;DHT22;3236;51.022;6.818;2023-01-24T14:45:41;3.40;99.90
6407;DHT22;3236;51.022;6.818;2023-01-24T14:48:10;3.50;99.90
6407;DHT22;3236;51.022;6.818;2023-01-24T14:50:40;3.80;99.90
6407;DHT22;3236;51.022;6.818;2023-01-24T14:53:23;3.70;99.90
6407;DHT22;3236;51.022;6.818;2023-01-24T14:55:52;3.80;99.90
6407;DHT22;3236;51.022;6.818;2023-01-24T14:58:21;3.70;99.90
6407;DHT22;3236;51.022;6.818;2023-01-24T15:00:51;3.60;99.90
6407;DHT22;3236;51.022;6.818;2023-01-24T15:03:21;3.30;99.90
6407;DHT22;3236;51.022;6.818;2023-01-24T15:05:52;3.80;99.90
6407;DHT22;3236;51.022;6.818;2023-01-24T15:08:19;3.80;99.90
6407;DHT22;3236;51.022;6.818;2023-01-24T15:11:02;3.60;99.90
6407;DHT22;3236;51.022;6.818;2023-01-24T15:13:32;3.80;99.90
6407;DHT22;3236;51.022;6.818;2023-01-24T15:16:02;3.30;99.90
6407;DHT22;3236;51.022;6.818;2023-01-24T15:18:40;3.30;99.90
6407;DHT22;3236;51.022;6.818;2023-01-24T15:21:24;3.60;99.90
6407;DHT22;3236;51.022;6.818;2023-01-24T15:23:56;3.10;99.90
6407;DHT22;3236;51.022;6.818;2023-01-24T15:26:43;3.30;99.90
6407;DHT22;3236;51.022;6.818;2023-01-24T15:29:42;3.30;99.90
6407;DHT22;3236;51.022;6.818;2023-01-24T15:32:38;3.40;99.90
6407;DHT22;3236;51.022;6.818;2023-01-24T15:35:32;3.20;99.90
6407;DHT22;3236;51.022;6.818;2023-01-24T15:38:02;2.90;99.90
6407;DHT22;3236;51.022;6.818;2023-01-24T15:40:46;3.20;99.90
6407;DHT22;3236;51.022;6.818;2023-01-24T15:43:17;3.10;99.90
6407;DHT22;3236;51.022;6.818;2023-01-24T15:46:02;3.10;99.90
6407;DHT22;3236;51.022;6.818;2023-01-24T15:48:59;2.90;99.90
6407;DHT22;3236;51.022;6.818;2023-01-24T15:51:33;3.10;99.90
6407;DHT22;3236;51.022;6.818;2023-01-24T15:54:01;3.10;99.90
6407;DHT22;3236;51.022;6.818;2023-01-24T15:56:35;3.10;99.90
6407;DHT22;3236;51.022;6.818;2023-01-24T15:59:12;2.90;99.90
6407;DHT22;3236;51.022;6.818;2023-01-24T16:01:41;2.90;99.90
6407;DHT22;3236;51.022;6.818;2023-01-24T16:04:12;2.90;99.90
6407;DHT22;3236;51.022;6.818;2023-01-24T16:06:43;2.70;99.90
6407;DHT22;3236;51.022;6.818;2023-01-24T16:09:10;3.00;99.90
6407;DHT22;3236;51.022;6.818;2023-01-24T16:11:39;2.60;99.90
6407;DHT22;3236;51.022;6.818;2023-01-24T16:14:13;3.00;99.90
6407;DHT22;3236;51.022;6.818;2023-01-24T16:16:40;2.80;99.90
6407;DHT22;3236;51.022;6.818;2023-01-24T16:19:14;2.70;99.90
6407;DHT22;3236;51.022;6.818;2023-01-24T16:21:42;2.90;99.90
6407;DHT22;3236;51.022;6.818;2023-01-24T16:24:09;2.60;99.90
6407;DHT22;3236;51.022;6.818;2023-01-24T16:26:38;3.30;99.90
6407;DHT22;3236;51.022;6.818;2023-01-24T16:29:12;2.90;99.90
6407;DHT22;3236;51.022;6.818;2023-01-24T16:31:40;2.80;99.90
6407;DHT22;3236;51.022;6.818;2023-01-24T16:34:14;2.80;99.90
6407;DHT22;3236;51.022;6.818;2023-01-24T16:36:41;2.90;99.90
6407;DHT22;3236;51.022;6.818;2023-01-24T16:39:14;2.70;99.90
6407;DHT22;3236;51.022;6.818;2023-01-24T16:41:43;2.70;99.90
6407;DHT22;3236;51.022;6.818;2023-01-24T16:44:10;2.40;99.90
6407;DHT22;3236;51.022;6.818;2023-01-24T16:46:37;2.70;99.90
6407;DHT22;3236;51.022;6.818;2023-01-24T16:49:04;2.70;99.90
6407;DHT22;3236;51.022;6.818;2023-01-24T16:51:33;2.60;99.90
6407;DHT22;3236;51.022;6.818;2023-01-24T16:54:00;2.80;99.90
6407;DHT22;3236;51.022;6.818;2023-01-24T16:56:27;2.90;99.90
6407;DHT22;3236;51.022;6.818;2023-01-24T16:59:01;2.50;99.90
6407;DHT22;3236;51.022;6.818;2023-01-24T17:01:37;2.50;99.90
6407;DHT22;3236;51.022;6.818;2023-01-24T17:04:16;2.60;99.90
6407;DHT22;3236;51.022;6.818;2023-01-24T17:06:48;2.60;99.90
6407;DHT22;3236;51.022;6.818;2023-01-24T17:11:43;2.90;99.90
6407;DHT22;3236;51.022;6.818;2023-01-24T17:14:10;2.50;99.90
6407;DHT22;3236;51.022;6.818;2023-01-24T17:16:38;2.40;99.90
6407;DHT22;3236;51.022;6.818;2023-01-24T17:19:05;2.80;99.90
6407;DHT22;3236;51.022;6.818;2023-01-24T17:21:32;2.80;99.90
6407;DHT22;3236;51.022;6.818;2023-01-24T17:24:01;2.50;99.90
6407;DHT22;3236;51.022;6.818;2023-01-24T17:26:28;2.30;99.90
6407;DHT22;3236;51.022;6.818;2023-01-24T17:31:22;2.60;99.90
6407;DHT22;3236;51.022;6.818;2023-01-24T17:33:51;2.50;99.90
6407;DHT22;3236;51.022;6.818;2023-01-24T17:36:19;2.40;99.90
6407;DHT22;3236;51.022;6.818;2023-01-24T17:38:51;2.20;99.90
6407;DHT22;3236;51.022;6.818;2023-01-24T17:41:23;2.70;99.90
6407;DHT22;3236;51.022;6.818;2023-01-24T17:43:50;2.50;99.90
6407;DHT22;3236;51.022;6.818;2023-01-24T17:46:19;2.70;99.90
6407;DHT22;3236;51.022;6.818;2023-01-24T17:48:46;2.40;99.90
6407;DHT22;3236;51.022;6.818;2023-01-24T17:51:16;2.50;99.90
6407;DHT22;3236;51.022;6.818;2023-01-24T17:53:44;2.50;99.90
6407;DHT22;3236;51.022;6.818;2023-01-24T17:56:17;2.50;99.90